Time;durP1;ratioP1;P1;durP2;ratioP2;P2;SDS_P1;SDS_P2;PMS_P1;PMS_P2;Temp;Humidity;BMP_temperature;BMP_pressure;BME280_temperature;BME280_humidity;BME280_pressure;Samples;Min_cycle;Max_cycle;Signal;HPM_P1;HPM_P2
2023/04/20 00:00:22;;;;;;;8.48;2.60;;;10.10;99.90;;;;;;5132206;27;20155;-74
2023/04/20 00:02:47;;;;;;;12.77;3.80;;;10.10;99.90;;;;;;5131794;27;20397;-74
2023/04/20 00:05:13;;;;;;;12.90;3.60;;;10.10;99.90;;;;;;5132395;27;20019;-74
2023/04/20 00:07:40;;;;;;;10.30;3.00;;;10.10;99.90;;;;;;5132077;27;20110;-78
2023/04/20 00:10:07;;;;;;;13.85;3.60;;;10.10;99.90;;;;;;5132140;27;20027;-74
2023/04/20 00:12:32;;;;;;;10.65;2.95;;;10.00;99.90;;;;;;5132381;27;20019;-74
2023/04/20 00:14:58;;;;;;;15.88;3.30;;;10.10;99.90;;;;;;5131748;28;20056;-74
2023/04/20 00:17:24;;;;;;;11.68;2.80;;;10.10;99.90;;;;;;5132145;27;20030;-74
2023/04/20 00:19:50;;;;;;;10.85;2.83;;;10.00;99.90;;;;;;5131572;27;20032;-74
2023/04/20 00:22:15;;;;;;;13.30;3.05;;;10.00;99.90;;;;;;5132043;28;20475;-73
2023/04/20 00:24:41;;;;;;;15.50;3.42;;;9.90;99.90;;;;;;5131639;28;20039;-74
2023/04/20 00:27:07;;;;;;;11.45;3.92;;;10.00;99.90;;;;;;5131840;28;20452;-74
2023/04/20 00:29:33;;;;;;;10.77;3.50;;;9.90;99.90;;;;;;5131977;28;20531;-74
2023/04/20 00:31:59;;;;;;;13.77;3.75;;;9.90;99.90;;;;;;5131704;28;20297;-73
2023/04/20 00:34:25;;;;;;;16.45;3.55;;;9.80;99.90;;;;;;5131954;28;20023;-73
2023/04/20 00:36:50;;;;;;;7.85;2.78;;;9.80;99.90;;;;;;5131872;28;20346;-73
2023/04/20 00:39:16;;;;;;;14.07;3.60;;;9.80;99.90;;;;;;5131942;28;20543;-73
2023/04/20 00:41:42;;;;;;;9.90;3.25;;;9.80;99.90;;;;;;5131472;28;20023;-74
2023/04/20 00:44:10;;;;;;;11.77;3.13;;;9.80;99.90;;;;;;5132325;28;20073;-74
2023/04/20 00:46:36;;;;;;;13.55;3.42;;;9.70;99.90;;;;;;5131971;28;20038;-71
2023/04/20 00:49:02;;;;;;;13.70;3.13;;;9.70;99.90;;;;;;5131437;28;20080;-74
2023/04/20 00:51:30;;;;;;;17.85;3.35;;;9.70;99.90;;;;;;5131844;28;20027;-74
2023/04/20 00:53:56;;;;;;;7.93;2.97;;;9.70;99.90;;;;;;5131747;28;20057;-74
2023/04/20 00:56:22;;;;;;;11.07;3.17;;;9.60;99.90;;;;;;5131153;28;20414;-74
2023/04/20 00:58:48;;;;;;;17.98;4.03;;;9.60;99.90;;;;;;5131215;28;20110;-75
2023/04/20 01:01:16;;;;;;;13.38;3.28;;;9.60;99.90;;;;;;5131290;28;20022;-73
2023/04/20 01:03:45;;;;;;;13.63;3.20;;;9.60;99.90;;;;;;5131439;28;20030;-74
2023/04/20 01:06:13;;;;;;;11.05;3.30;;;9.60;99.90;;;;;;5131493;28;20350;-74
2023/04/20 01:09:05;;;;;;;14.95;3.90;;;9.60;99.90;;;;;;5131489;28;20101;-74
2023/04/20 01:11:31;;;;;;;13.17;3.57;;;9.50;99.90;;;;;;5127035;28;20035;-74
2023/04/20 01:13:57;;;;;;;12.43;3.03;;;9.50;99.90;;;;;;5131546;28;20258;-73
2023/04/20 01:16:22;;;;;;;9.27;3.38;;;9.50;99.90;;;;;;5131821;28;20440;-74
2023/04/20 01:18:50;;;;;;;12.32;2.95;;;9.50;99.90;;;;;;5131429;28;20034;-75
2023/04/20 01:21:17;;;;;;;13.32;3.13;;;9.40;99.90;;;;;;5131596;28;20058;-74
2023/04/20 01:23:43;;;;;;;11.63;3.25;;;9.50;99.90;;;;;;5130854;28;20046;-73
2023/04/20 01:26:11;;;;;;;13.73;2.95;;;9.40;99.90;;;;;;5131314;28;20038;-74
2023/04/20 01:28:37;;;;;;;10.30;2.95;;;9.40;99.90;;;;;;5131047;28;20050;-73
2023/04/20 01:31:05;;;;;;;19.25;3.58;;;9.40;99.90;;;;;;5132754;27;20039;-74
2023/04/20 01:33:31;;;;;;;11.27;3.13;;;9.40;99.90;;;;;;5134501;27;20023;-72
2023/04/20 01:35:56;;;;;;;9.50;2.95;;;9.40;99.90;;;;;;5134381;27;20046;-75
2023/04/20 01:38:23;;;;;;;7.78;2.90;;;9.40;99.90;;;;;;5134704;27;20460;-73
2023/04/20 01:40:49;;;;;;;10.23;2.97;;;9.30;99.90;;;;;;5133951;27;20038;-74
2023/04/20 01:43:15;;;;;;;11.68;3.22;;;9.30;99.90;;;;;;5134807;27;20098;-74
2023/04/20 01:45:41;;;;;;;12.43;2.80;;;9.30;99.90;;;;;;5134529;27;20034;-75
2023/04/20 01:48:06;;;;;;;14.18;3.15;;;9.20;99.90;;;;;;5134023;27;20027;-73
2023/04/20 01:50:32;;;;;;;12.25;3.40;;;9.20;99.90;;;;;;5134356;27;20031;-73
2023/04/20 01:52:58;;;;;;;17.80;3.47;;;9.20;99.90;;;;;;5134065;27;20031;-73
2023/04/20 01:55:24;;;;;;;12.48;2.97;;;9.20;99.90;;;;;;5134377;27;20046;-73
2023/04/20 01:57:49;;;;;;;10.52;2.90;;;9.20;99.90;;;;;;5133888;27;20489;-74
2023/04/20 02:00:15;;;;;;;5.95;2.35;;;9.20;99.90;;;;;;5134273;27;20446;-74
2023/04/20 02:02:41;;;;;;;8.32;2.95;;;9.20;99.90;;;;;;5134104;27;20328;-72
2023/04/20 02:05:07;;;;;;;10.82;3.17;;;9.20;99.90;;;;;;5133494;27;20031;-73
2023/04/20 02:07:33;;;;;;;9.18;2.83;;;9.10;99.90;;;;;;5133806;27;20503;-73
2023/04/20 02:09:59;;;;;;;7.25;2.47;;;9.10;99.90;;;;;;5133374;27;20096;-73
2023/04/20 02:12:24;;;;;;;6.55;2.00;;;9.10;99.90;;;;;;5133844;27;20035;-73
2023/04/20 02:14:50;;;;;;;10.13;2.75;;;9.10;99.90;;;;;;5133245;27;20059;-73
2023/04/20 02:17:16;;;;;;;7.95;2.83;;;9.10;99.90;;;;;;5133594;27;20086;-73
2023/04/20 02:19:43;;;;;;;11.50;2.80;;;9.00;99.90;;;;;;5133609;27;20088;-73
2023/04/20 02:22:08;;;;;;;15.15;4.32;;;9.10;99.90;;;;;;5133219;27;20027;-74
2023/04/20 02:24:34;;;;;;;7.90;3.58;;;9.00;99.90;;;;;;5133286;27;20178;-74
2023/04/20 02:27:00;;;;;;;14.45;3.60;;;9.00;99.90;;;;;;5132990;27;20027;-73
2023/04/20 02:29:26;;;;;;;12.05;3.70;;;9.00;99.90;;;;;;5133492;27;20125;-74
2023/04/20 02:31:51;;;;;;;12.77;3.20;;;8.90;99.90;;;;;;5132855;27;20094;-74
2023/04/20 02:34:17;;;;;;;11.77;3.78;;;8.90;99.90;;;;;;5133117;27;20027;-73
2023/04/20 02:36:43;;;;;;;8.05;2.85;;;9.00;99.90;;;;;;5133502;27;20023;-74
2023/04/20 02:39:09;;;;;;;10.90;3.15;;;8.90;99.90;;;;;;5132853;27;20039;-74
2023/04/20 02:41:34;;;;;;;12.73;3.38;;;8.80;99.90;;;;;;5132514;27;20027;-74
2023/04/20 02:44:00;;;;;;;7.20;3.13;;;8.80;99.90;;;;;;5114191;27;20433;-74
2023/04/20 02:46:26;;;;;;;7.43;2.70;;;8.80;99.90;;;;;;5133276;27;20165;-74
2023/04/20 02:48:52;;;;;;;9.50;2.85;;;8.70;99.90;;;;;;5132620;27;20038;-74
2023/04/20 02:51:17;;;;;;;8.30;2.85;;;8.70;99.90;;;;;;5114532;27;20499;-73
2023/04/20 02:53:43;;;;;;;7.82;2.75;;;8.60;99.90;;;;;;5133256;27;20066;-73
2023/04/20 02:56:09;;;;;;;7.10;3.08;;;8.60;99.90;;;;;;5132972;27;20466;-73
2023/04/20 02:58:35;;;;;;;7.90;2.70;;;8.60;99.90;;;;;;5133428;27;20023;-73
2023/04/20 03:01:02;;;;;;;8.10;2.58;;;8.60;99.90;;;;;;5132765;27;20038;-74
2023/04/20 03:03:28;;;;;;;8.88;3.05;;;8.50;99.90;;;;;;5133218;27;20027;-73
2023/04/20 03:05:54;;;;;;;11.15;2.90;;;8.50;99.90;;;;;;5132696;27;20030;-74
2023/04/20 03:08:21;;;;;;;6.60;2.47;;;8.50;99.90;;;;;;5133009;27;20209;-73
2023/04/20 03:10:46;;;;;;;9.27;2.53;;;8.40;99.90;;;;;;5133066;27;20457;-73
2023/04/20 03:13:12;;;;;;;16.55;2.35;;;8.40;99.90;;;;;;5132224;27;20024;-73
2023/04/20 03:15:38;;;;;;;8.48;2.47;;;8.40;99.90;;;;;;5132968;27;20023;-73
2023/04/20 03:18:04;;;;;;;10.32;2.30;;;8.40;99.90;;;;;;5132422;27;20117;-73
2023/04/20 03:20:29;;;;;;;15.38;2.70;;;8.40;99.90;;;;;;5132985;27;20027;-73
2023/04/20 03:22:55;;;;;;;7.13;2.47;;;8.40;99.90;;;;;;5132427;27;20027;-73
2023/04/20 03:25:21;;;;;;;10.65;2.90;;;8.40;99.90;;;;;;5132407;27;20107;-73
2023/04/20 03:27:47;;;;;;;8.48;2.40;;;8.40;99.90;;;;;;5132713;27;20100;-74
2023/04/20 03:30:13;;;;;;;11.95;2.42;;;8.40;99.90;;;;;;5132148;27;20035;-74
2023/04/20 03:32:40;;;;;;;13.10;2.95;;;8.30;99.90;;;;;;5132320;27;20031;-74
2023/04/20 03:35:06;;;;;;;7.93;2.83;;;8.30;99.90;;;;;;5132121;27;20027;-74
2023/04/20 03:37:32;;;;;;;7.18;2.53;;;8.30;99.90;;;;;;5132379;27;20049;-74
2023/04/20 03:39:57;;;;;;;11.50;2.90;;;8.30;99.90;;;;;;5132195;27;20397;-74
2023/04/20 03:42:23;;;;;;;6.90;2.25;;;8.20;99.90;;;;;;5132692;27;20481;-74
2023/04/20 03:44:49;;;;;;;12.30;2.63;;;8.20;99.90;;;;;;5132444;27;20031;-74
2023/04/20 03:47:14;;;;;;;8.63;2.63;;;8.20;99.90;;;;;;5131860;27;20035;-73
2023/04/20 03:49:40;;;;;;;9.50;2.75;;;8.20;99.90;;;;;;5132393;27;20027;-73
2023/04/20 03:52:06;;;;;;;5.75;2.20;;;8.10;99.90;;;;;;5131930;27;20027;-73
2023/04/20 03:54:32;;;;;;;7.38;2.70;;;8.10;99.90;;;;;;5113648;27;20121;-72
2023/04/20 03:56:57;;;;;;;11.23;2.53;;;8.10;99.90;;;;;;5131877;27;20520;-74
2023/04/20 03:59:23;;;;;;;7.60;2.90;;;8.10;99.90;;;;;;5132411;27;20069;-74
2023/04/20 04:01:49;;;;;;;10.80;3.20;;;8.10;99.90;;;;;;5132599;27;20404;-74
2023/04/20 04:04:15;;;;;;;10.73;2.50;;;8.10;99.90;;;;;;5131343;27;20472;-73
2023/04/20 04:06:40;;;;;;;7.55;2.60;;;8.00;99.90;;;;;;5131872;27;20065;-73
2023/04/20 04:09:06;;;;;;;12.70;2.58;;;8.00;99.90;;;;;;5132027;27;20023;-74
2023/04/20 04:11:32;;;;;;;6.40;2.63;;;8.00;99.90;;;;;;5132172;27;20039;-74
2023/04/20 04:13:58;;;;;;;7.88;2.42;;;8.00;99.90;;;;;;5131334;27;20466;-74
2023/04/20 04:16:24;;;;;;;10.20;2.75;;;8.00;99.90;;;;;;5131799;27;20042;-74
2023/04/20 04:18:49;;;;;;;8.00;2.65;;;8.00;99.90;;;;;;5131694;28;20028;-73
2023/04/20 04:21:15;;;;;;;9.73;2.97;;;8.00;99.90;;;;;;5131556;28;20027;-73
2023/04/20 04:23:41;;;;;;;11.90;2.60;;;8.00;99.90;;;;;;5131616;28;20058;-73
2023/04/20 04:26:08;;;;;;;6.53;2.55;;;8.00;99.90;;;;;;5131427;28;20445;-73
2023/04/20 04:28:34;;;;;;;9.75;2.92;;;8.00;99.90;;;;;;5113289;28;20063;-73
2023/04/20 04:31:00;;;;;;;15.15;3.85;;;8.00;99.90;;;;;;5131177;28;20499;-74
2023/04/20 04:33:26;;;;;;;8.68;2.70;;;8.00;99.90;;;;;;5131849;28;20035;-72
2023/04/20 04:35:52;;;;;;;13.32;3.45;;;8.00;99.90;;;;;;5131531;28;20056;-73
2023/04/20 04:38:18;;;;;;;9.27;2.70;;;8.00;99.90;;;;;;5131109;28;20027;-73
2023/04/20 04:40:46;;;;;;;6.50;2.20;;;8.00;99.90;;;;;;5131992;28;20095;-73
2023/04/20 04:43:12;;;;;;;9.80;2.60;;;8.00;99.90;;;;;;5131116;28;20089;-73
2023/04/20 04:45:39;;;;;;;10.90;2.75;;;8.00;99.90;;;;;;5131773;28;20501;-73
2023/04/20 04:48:07;;;;;;;11.25;2.88;;;8.00;99.90;;;;;;5130947;28;20113;-73
2023/04/20 04:50:33;;;;;;;12.38;3.17;;;8.00;99.90;;;;;;5131514;28;20092;-73
2023/04/20 04:52:58;;;;;;;9.20;2.80;;;7.90;99.90;;;;;;5131128;28;20456;-74
2023/04/20 04:55:24;;;;;;;10.45;3.38;;;8.00;99.90;;;;;;5131359;28;20019;-73
2023/04/20 04:57:50;;;;;;;9.25;2.65;;;8.00;99.90;;;;;;5131241;28;20477;-73
2023/04/20 05:00:16;;;;;;;9.45;2.80;;;7.90;99.90;;;;;;5130846;28;20030;-73
2023/04/20 05:02:41;;;;;;;11.18;3.47;;;7.90;99.90;;;;;;5130930;28;20038;-73
2023/04/20 05:05:07;;;;;;;10.98;2.53;;;7.90;99.90;;;;;;5131463;27;20115;-73
2023/04/20 05:07:33;;;;;;;14.30;2.80;;;7.90;99.90;;;;;;5134948;27;20556;-73
2023/04/20 05:09:59;;;;;;;9.23;3.33;;;7.90;99.90;;;;;;5134234;27;20027;-73
2023/04/20 05:12:25;;;;;;;6.82;2.90;;;7.90;99.90;;;;;;5134988;27;20057;-73
2023/04/20 05:14:53;;;;;;;4.93;2.60;;;7.90;99.90;;;;;;5134380;27;20118;-73
2023/04/20 05:17:19;;;;;;;6.63;2.40;;;7.90;99.90;;;;;;5134592;27;20062;-73
2023/04/20 05:19:45;;;;;;;11.60;3.70;;;7.90;99.90;;;;;;5134788;27;20066;-74
2023/04/20 05:22:10;;;;;;;10.88;3.70;;;7.90;99.90;;;;;;5134191;27;20140;-73
2023/04/20 05:24:36;;;;;;;10.32;3.28;;;8.00;99.90;;;;;;5134744;27;20047;-73
2023/04/20 05:27:02;;;;;;;8.75;2.70;;;8.00;99.90;;;;;;5134023;27;20029;-73
2023/04/20 05:29:28;;;;;;;10.38;3.15;;;8.00;99.90;;;;;;5134641;27;20223;-73
2023/04/20 05:31:54;;;;;;;14.45;3.42;;;8.00;99.90;;;;;;5134777;27;20504;-73
2023/04/20 05:34:20;;;;;;;7.22;3.10;;;8.00;99.90;;;;;;5134193;27;20110;-73
2023/04/20 05:36:46;;;;;;;15.57;4.32;;;8.00;99.90;;;;;;5135031;27;20344;-74
2023/04/20 05:39:12;;;;;;;8.18;3.50;;;8.00;99.90;;;;;;5134140;27;20345;-74
2023/04/20 05:41:38;;;;;;;8.20;3.53;;;8.00;99.90;;;;;;5135267;27;20113;-73
2023/04/20 05:44:03;;;;;;;12.15;3.72;;;8.00;99.90;;;;;;5134014;27;20019;-74
2023/04/20 05:46:30;;;;;;;10.57;3.63;;;8.10;99.90;;;;;;5134376;27;20023;-74
2023/04/20 05:48:55;;;;;;;12.82;3.63;;;8.10;99.90;;;;;;5134660;27;20074;-73
2023/04/20 05:51:21;;;;;;;12.98;3.38;;;8.20;99.90;;;;;;5133543;27;20459;-74
2023/04/20 05:53:47;;;;;;;11.50;3.90;;;8.20;99.90;;;;;;5134445;27;20026;-74
2023/04/20 05:56:13;;;;;;;14.85;4.20;;;8.30;99.90;;;;;;5133720;27;20355;-74
2023/04/20 05:58:40;;;;;;;12.15;3.88;;;8.40;99.90;;;;;;5134096;27;20066;-72
2023/04/20 06:01:06;;;;;;;12.82;3.63;;;8.40;99.90;;;;;;5133644;27;20164;-73
2023/04/20 06:03:32;;;;;;;11.95;4.15;;;8.50;99.90;;;;;;5133842;27;20054;-73
2023/04/20 06:05:58;;;;;;;20.83;4.15;;;8.50;99.90;;;;;;5133739;27;20479;-74
2023/04/20 06:08:23;;;;;;;15.60;4.10;;;8.60;99.90;;;;;;5114601;27;20495;-74
2023/04/20 06:10:54;;;;;;;15.73;4.18;;;8.60;99.90;;;;;;5133801;27;20055;-73
2023/04/20 06:13:20;;;;;;;13.15;4.05;;;8.70;99.90;;;;;;5133314;27;20027;-73
2023/04/20 06:15:46;;;;;;;13.60;4.07;;;8.80;99.90;;;;;;5133450;27;20099;-75
2023/04/20 06:18:12;;;;;;;14.30;4.10;;;8.90;99.90;;;;;;5133248;27;20027;-73
2023/04/20 06:20:38;;;;;;;13.73;4.53;;;9.00;99.90;;;;;;5134038;27;20125;-73
2023/04/20 06:23:04;;;;;;;12.02;4.32;;;9.00;99.90;;;;;;5133105;27;20015;-74
2023/04/20 06:25:30;;;;;;;17.13;4.47;;;9.10;99.90;;;;;;5133442;27;20066;-74
2023/04/20 06:27:55;;;;;;;16.48;4.80;;;9.10;99.90;;;;;;5133890;27;20111;-73
2023/04/20 06:30:21;;;;;;;15.73;5.32;;;9.20;99.90;;;;;;5133056;27;20027;-75
2023/04/20 06:32:47;;;;;;;15.20;4.60;;;9.30;99.90;;;;;;5133458;27;20092;-74
2023/04/20 06:35:13;;;;;;;17.65;4.50;;;9.30;99.90;;;;;;5132539;27;20027;-72
2023/04/20 06:37:39;;;;;;;17.23;5.07;;;9.30;99.90;;;;;;5133122;27;20023;-73
2023/04/20 06:40:09;;;;;;;14.75;4.45;;;9.30;99.90;;;;;;5132771;27;20023;-74
2023/04/20 06:42:35;;;;;;;13.57;4.88;;;9.40;99.90;;;;;;5133150;27;20019;-74
2023/04/20 06:45:01;;;;;;;16.05;5.40;;;9.50;99.90;;;;;;5133209;27;20023;-74
2023/04/20 06:47:30;;;;;;;17.55;4.55;;;9.50;99.90;;;;;;5132459;27;20332;-74
2023/04/20 06:50:00;;;;;;;9.73;4.53;;;9.50;99.90;;;;;;5133025;27;20049;-73
2023/04/20 06:52:26;;;;;;;16.90;5.30;;;9.60;99.90;;;;;;5132524;27;20106;-73
2023/04/20 06:54:53;;;;;;;17.40;5.13;;;9.60;99.90;;;;;;5133290;27;20023;-74
2023/04/20 06:57:19;;;;;;;17.25;5.55;;;9.70;99.90;;;;;;5133171;27;20027;-74
2023/04/20 06:59:44;;;;;;;12.07;5.38;;;9.70;99.90;;;;;;5132382;27;20030;-73
2023/04/20 07:02:10;;;;;;;15.15;5.57;;;9.80;99.90;;;;;;5132189;27;20204;-74
2023/04/20 07:04:36;;;;;;;16.77;5.40;;;9.90;99.90;;;;;;5132674;27;20019;-73
2023/04/20 07:07:02;;;;;;;12.60;5.50;;;10.00;99.90;;;;;;5132870;27;20019;-73
2023/04/20 07:09:27;;;;;;;12.23;5.10;;;10.00;99.90;;;;;;5132150;27;20117;-74
2023/04/20 07:11:55;;;;;;;16.83;5.65;;;10.10;99.90;;;;;;5132429;27;20484;-74
2023/04/20 07:14:20;;;;;;;16.20;5.07;;;10.20;99.90;;;;;;5132209;27;20456;-74
2023/04/20 07:16:46;;;;;;;20.25;5.68;;;10.30;99.90;;;;;;5132426;27;20019;-74
2023/04/20 07:19:12;;;;;;;18.00;5.55;;;10.10;99.90;;;;;;5131826;27;20035;-74
2023/04/20 07:21:38;;;;;;;9.80;5.10;;;9.90;99.90;;;;;;5132482;27;20079;-73
2023/04/20 07:24:04;;;;;;;15.88;5.88;;;9.70;99.90;;;;;;5132039;27;20095;-73
2023/04/20 07:26:30;;;;;;;22.58;6.10;;;9.80;99.90;;;;;;5131531;27;20379;-73
2023/04/20 07:28:56;;;;;;;18.95;6.57;;;9.90;99.90;;;;;;5131690;27;20019;-73
2023/04/20 07:31:21;;;;;;;15.35;6.18;;;10.00;99.90;;;;;;5131788;27;20023;-73
2023/04/20 07:33:47;;;;;;;16.75;5.82;;;10.20;99.90;;;;;;5132538;27;20023;-74
2023/04/20 07:36:13;;;;;;;17.25;5.90;;;10.30;99.90;;;;;;5131876;27;20407;-75
2023/04/20 07:38:38;;;;;;;15.55;4.80;;;10.40;99.90;;;;;;5132185;27;20042;-74
2023/04/20 07:41:08;;;;;;;19.90;5.63;;;10.40;99.90;;;;;;5132214;27;20110;-74
2023/04/20 07:43:34;;;;;;;15.88;5.35;;;10.50;99.90;;;;;;5131689;27;20431;-74
2023/04/20 07:46:00;;;;;;;13.45;5.05;;;10.50;99.90;;;;;;5131869;27;20118;-72
2023/04/20 07:48:25;;;;;;;19.08;5.78;;;10.60;99.90;;;;;;5131506;27;20019;-73
2023/04/20 07:50:51;;;;;;;18.95;5.55;;;10.60;99.90;;;;;;5131823;27;20023;-73
2023/04/20 07:53:17;;;;;;;16.02;5.30;;;10.60;99.90;;;;;;5131330;27;20321;-74
2023/04/20 07:55:43;;;;;;;22.73;5.55;;;10.70;99.90;;;;;;5131644;27;20019;-74
2023/04/20 07:58:09;;;;;;;15.00;5.38;;;10.80;99.90;;;;;;5131355;27;20092;-75
2023/04/20 08:00:34;;;;;;;13.48;5.03;;;10.80;99.90;;;;;;5131864;27;20394;-74
2023/04/20 08:03:00;;;;;;;14.20;5.35;;;10.80;99.90;;;;;;5131786;27;20452;-74
2023/04/20 08:05:26;;;;;;;14.73;5.80;;;10.60;99.90;;;;;;5131359;27;20436;-74
2023/04/20 08:07:52;;;;;;;20.42;6.03;;;10.80;99.90;;;;;;5131735;27;20038;-74
2023/04/20 08:10:17;;;;;;;14.38;5.47;;;10.80;99.90;;;;;;5131134;27;20019;-74
2023/04/20 08:12:43;;;;;;;13.48;4.80;;;10.80;99.90;;;;;;5131819;27;20094;-75
2023/04/20 08:15:09;;;;;;;12.18;4.70;;;11.00;99.90;;;;;;5131370;27;20023;-77
2023/04/20 08:17:35;;;;;;;12.45;4.72;;;10.80;99.90;;;;;;5131425;27;20103;-73
2023/04/20 08:20:01;;;;;;;13.50;4.65;;;10.60;99.90;;;;;;5131659;28;20019;-73
2023/04/20 08:22:28;;;;;;;15.52;4.43;;;10.70;99.90;;;;;;5130770;28;20023;-72
2023/04/20 08:24:57;;;;;;;13.10;5.13;;;10.80;99.90;;;;;;5131158;28;20054;-73
2023/04/20 08:27:23;;;;;;;16.80;5.13;;;10.70;99.90;;;;;;5130704;28;20118;-73
2023/04/20 08:29:49;;;;;;;12.38;5.18;;;10.80;99.90;;;;;;5131175;28;20023;-73
2023/04/20 08:32:17;;;;;;;9.90;4.38;;;10.80;99.90;;;;;;5112646;28;20074;-74
2023/04/20 08:34:43;;;;;;;8.15;4.03;;;10.80;99.90;;;;;;5130848;28;20378;-73
2023/04/20 08:37:09;;;;;;;9.88;3.50;;;10.90;99.90;;;;;;5131428;28;20023;-73
2023/04/20 08:39:35;;;;;;;5.85;3.05;;;10.90;99.90;;;;;;5132206;27;20357;-73
2023/04/20 08:42:01;;;;;;;10.02;3.80;;;10.80;99.90;;;;;;5135170;27;20027;-73
2023/04/20 08:44:27;;;;;;;8.32;3.20;;;10.90;99.90;;;;;;5135085;27;20022;-73
2023/04/20 08:46:53;;;;;;;9.10;3.63;;;10.90;99.90;;;;;;5135333;27;20106;-73
2023/04/20 08:49:20;;;;;;;9.60;3.83;;;11.00;99.90;;;;;;5134672;27;20030;-74
2023/04/20 08:51:46;;;;;;;10.82;4.05;;;11.20;99.90;;;;;;5135381;27;20118;-74
2023/04/20 08:54:13;;;;;;;15.75;5.40;;;11.20;99.90;;;;;;5134949;27;20023;-74
2023/04/20 08:56:45;;;;;;;19.58;5.60;;;11.30;99.90;;;;;;5135444;27;20329;-73
2023/04/20 08:59:13;;;;;;;14.27;5.13;;;11.40;99.90;;;;;;5135340;27;20137;-74
2023/04/20 09:01:40;;;;;;;18.25;6.68;;;11.40;99.90;;;;;;5135285;27;20503;-74
2023/04/20 09:04:20;;;;;;;15.57;6.95;;;11.30;99.90;;;;;;5135214;27;20033;-73
2023/04/20 09:06:50;;;;;;;17.88;7.25;;;11.50;99.90;;;;;;5135053;27;20038;-74
2023/04/20 09:09:20;;;;;;;16.15;6.70;;;11.40;99.90;;;;;;5134533;27;20440;-73
2023/04/20 09:11:46;;;;;;;16.40;6.32;;;11.40;99.90;;;;;;5135239;27;20386;-74
2023/04/20 09:14:15;;;;;;;21.08;7.10;;;11.30;99.90;;;;;;5116649;27;20026;-75
2023/04/20 09:16:52;;;;;;;19.27;6.60;;;11.00;99.90;;;;;;5136109;27;20110;-72
2023/04/20 09:19:24;;;;;;;20.05;7.40;;;11.00;99.90;;;;;;5134697;27;20362;-74
2023/04/20 09:21:53;;;;;;;18.05;6.75;;;11.10;99.90;;;;;;5134744;27;20030;-73
2023/04/20 09:24:20;;;;;;;18.40;7.88;;;11.10;99.90;;;;;;5134453;27;20039;-74
2023/04/20 09:26:46;;;;;;;16.17;5.78;;;11.00;99.90;;;;;;5135194;27;20050;-73
2023/04/20 09:29:20;;;;;;;16.40;7.10;;;10.90;99.90;;;;;;5135015;27;20034;-75
2023/04/20 09:31:47;;;;;;;16.23;7.72;;;10.90;99.90;;;;;;5134989;27;20031;-73
2023/04/20 09:34:14;;;;;;;16.05;6.63;;;10.90;99.90;;;;;;5134874;27;20019;-74
2023/04/20 09:36:42;;;;;;;14.45;7.18;;;10.80;99.90;;;;;;5134458;27;20027;-73
2023/04/20 09:39:16;;;;;;;26.77;7.10;;;10.90;99.90;;;;;;5134817;27;20084;-73
2023/04/20 09:41:43;;;;;;;16.05;6.18;;;11.00;99.90;;;;;;5134498;27;20511;-75
2023/04/20 09:44:09;;;;;;;15.52;6.32;;;11.10;99.90;;;;;;5134090;27;20030;-73
2023/04/20 09:46:38;;;;;;;15.95;7.25;;;11.10;99.90;;;;;;5134297;27;20027;-73
2023/04/20 09:49:05;;;;;;;18.17;6.50;;;11.10;99.90;;;;;;5134589;27;20112;-74
2023/04/20 09:51:34;;;;;;;14.82;7.03;;;11.10;99.90;;;;;;5133414;27;20040;-73
2023/04/20 09:54:01;;;;;;;14.88;5.68;;;11.20;99.90;;;;;;5134539;27;20372;-75
2023/04/20 09:56:28;;;;;;;13.68;6.85;;;11.30;99.90;;;;;;5133342;27;20476;-74
2023/04/20 09:58:55;;;;;;;13.40;6.30;;;11.40;99.90;;;;;;5134044;27;20026;-73
2023/04/20 10:01:22;;;;;;;15.18;7.63;;;11.40;99.90;;;;;;5133429;27;20119;-74
2023/04/20 10:03:48;;;;;;;12.50;5.93;;;11.40;99.90;;;;;;5133664;27;20039;-74
2023/04/20 10:06:33;;;;;;;13.23;6.20;;;11.30;99.90;;;;;;5134106;27;20344;-72
2023/04/20 10:09:04;;;;;;;13.63;5.63;;;11.30;99.90;;;;;;5133365;27;20023;-74
2023/04/20 10:11:42;;;;;;;9.95;5.40;;;11.40;99.90;;;;;;5133065;27;20038;-74
2023/04/20 10:14:16;;;;;;;13.85;5.70;;;11.40;99.90;;;;;;5133799;27;20022;-75
2023/04/20 10:16:43;;;;;;;14.07;5.43;;;11.50;99.90;;;;;;5133851;27;20075;-74
2023/04/20 10:19:09;;;;;;;11.95;5.88;;;11.60;99.90;;;;;;5133917;27;20023;-74
2023/04/20 10:21:45;;;;;;;7.63;4.70;;;11.50;99.90;;;;;;5133711;27;20356;-74
2023/04/20 10:24:11;;;;;;;12.10;4.55;;;11.40;99.90;;;;;;5133508;27;20054;-74
2023/04/20 10:26:38;;;;;;;10.55;4.53;;;11.30;99.90;;;;;;5133148;27;20027;-73
2023/04/20 10:29:05;;;;;;;12.27;4.85;;;11.30;99.90;;;;;;5114735;27;20440;-73
2023/04/20 10:31:36;;;;;;;12.18;5.53;;;11.40;99.90;;;;;;5132989;27;20062;-74
2023/04/20 10:34:01;;;;;;;8.48;5.03;;;11.50;99.90;;;;;;5133136;27;20106;-74
2023/04/20 10:36:33;;;;;;;17.08;6.47;;;11.60;99.90;;;;;;5114581;27;20436;-74
2023/04/20 10:39:04;;;;;;;17.63;5.75;;;11.60;99.90;;;;;;5133247;27;20508;-74
2023/04/20 10:41:30;;;;;;;9.82;5.18;;;11.60;99.90;;;;;;5114232;27;20020;-74
2023/04/20 10:44:08;;;;;;;13.38;4.97;;;11.70;99.90;;;;;;5132992;27;20022;-73
2023/04/20 10:46:36;;;;;;;11.95;5.63;;;11.80;99.90;;;;;;5132604;27;20015;-73
2023/04/20 10:49:02;;;;;;;16.35;5.68;;;11.80;99.90;;;;;;5132935;27;20023;-73
2023/04/20 10:51:28;;;;;;;10.55;5.75;;;11.80;99.90;;;;;;5132606;27;20103;-74
2023/04/20 10:54:12;;;;;;;9.93;4.68;;;11.70;99.90;;;;;;5133189;27;20114;-74
2023/04/20 10:56:46;;;;;;;11.18;5.05;;;11.70;99.90;;;;;;5132327;27;20494;-74
2023/04/20 10:59:16;;;;;;;12.32;5.05;;;11.70;99.90;;;;;;5133043;27;20034;-73
2023/04/20 11:01:43;;;;;;;14.50;6.25;;;11.80;99.90;;;;;;5132037;27;20348;-73
2023/04/20 11:04:10;;;;;;;17.42;6.07;;;11.80;99.90;;;;;;5131756;27;20023;-73
2023/04/20 11:06:39;;;;;;;14.30;5.78;;;11.80;99.90;;;;;;5132509;27;20117;-73
2023/04/20 11:09:18;;;;;;;15.88;5.95;;;11.70;99.90;;;;;;5132794;27;20110;-74
2023/04/20 11:11:44;;;;;;;16.25;5.80;;;11.70;99.90;;;;;;5132397;27;20128;-72
2023/04/20 11:14:11;;;;;;;14.27;6.22;;;11.70;99.90;;;;;;5132669;27;20117;-73
2023/04/20 11:16:37;;;;;;;18.00;6.05;;;11.70;99.90;;;;;;5132151;27;20034;-73
2023/04/20 11:19:04;;;;;;;15.85;6.13;;;11.60;99.90;;;;;;5132739;27;20023;-74
2023/04/20 11:21:41;;;;;;;20.38;6.43;;;11.60;99.90;;;;;;5131825;27;20027;-75
2023/04/20 11:24:18;;;;;;;17.80;5.80;;;11.70;99.90;;;;;;5068349;28;20380;-74
2023/04/20 11:26:44;;;;;;;14.55;5.90;;;11.70;99.90;;;;;;5068219;28;20079;-74
2023/04/20 11:29:11;;;;;;;15.13;5.70;;;11.70;99.90;;;;;;5068590;28;20052;-74
2023/04/20 11:31:37;;;;;;;17.90;6.32;;;11.80;99.90;;;;;;5068108;28;20070;-75
2023/04/20 11:34:03;;;;;;;9.32;4.97;;;11.80;99.90;;;;;;5068560;28;20024;-74
2023/04/20 11:36:29;;;;;;;11.88;5.13;;;11.80;99.90;;;;;;5067665;28;20453;-74
2023/04/20 11:39:06;;;;;;;14.98;5.20;;;11.90;99.90;;;;;;5068894;28;20025;-73
2023/04/20 11:41:32;;;;;;;13.80;5.55;;;11.80;99.90;;;;;;5068556;28;20359;-74
2023/04/20 11:43:57;;;;;;;12.50;5.13;;;11.80;99.90;;;;;;5066261;28;20032;-72
2023/04/20 11:46:23;;;;;;;37.70;7.28;;;11.90;99.90;;;;;;5067146;28;20032;-74
2023/04/20 11:48:49;;;;;;;17.27;5.60;;;12.00;99.90;;;;;;5067858;28;20052;-73
2023/04/20 11:51:15;;;;;;;16.77;5.70;;;11.80;99.90;;;;;;5067815;28;20097;-73
2023/04/20 11:53:41;;;;;;;12.20;5.20;;;11.80;99.90;;;;;;5067115;28;20020;-72
2023/04/20 11:56:07;;;;;;;13.20;5.40;;;11.90;99.90;;;;;;5067595;28;20089;-74
2023/04/20 11:58:33;;;;;;;12.45;5.68;;;11.90;99.90;;;;;;5067502;28;20020;-74
2023/04/20 12:00:59;;;;;;;13.70;4.50;;;11.80;99.90;;;;;;5068467;28;20099;-73
2023/04/20 12:03:26;;;;;;;16.85;5.78;;;11.80;99.90;;;;;;5067956;28;20036;-74
2023/04/20 12:05:52;;;;;;;14.88;6.65;;;11.90;99.90;;;;;;5068473;28;20032;-74
2023/04/20 12:08:17;;;;;;;12.70;5.22;;;11.80;99.90;;;;;;5068402;28;20365;-73
2023/04/20 12:10:43;;;;;;;15.63;5.30;;;11.80;99.90;;;;;;5067933;28;20321;-74
2023/04/20 12:13:09;;;;;;;9.68;4.88;;;11.90;99.90;;;;;;5068406;28;20182;-73
2023/04/20 12:15:35;;;;;;;14.15;5.50;;;11.90;99.90;;;;;;5067870;28;20461;-73
2023/04/20 12:18:01;;;;;;;18.75;6.28;;;12.00;99.90;;;;;;5068176;28;20442;-73
2023/04/20 12:20:27;;;;;;;13.63;5.70;;;12.00;99.90;;;;;;5067783;28;20025;-74
2023/04/20 12:22:52;;;;;;;14.70;5.72;;;12.10;99.90;;;;;;5067956;28;20326;-74
2023/04/20 12:25:19;;;;;;;12.70;5.40;;;12.10;99.90;;;;;;5067868;28;20078;-73
2023/04/20 12:27:44;;;;;;;14.43;5.28;;;12.20;99.90;;;;;;5067497;28;20044;-73
2023/04/20 12:30:11;;;;;;;15.48;5.15;;;12.10;99.90;;;;;;5067687;28;20020;-73
2023/04/20 12:32:36;;;;;;;13.18;4.88;;;11.90;99.90;;;;;;5067418;28;20029;-73
2023/04/20 12:35:02;;;;;;;12.90;4.65;;;12.00;99.90;;;;;;5057363;28;20035;-73
2023/04/20 12:37:28;;;;;;;14.63;4.72;;;12.10;99.90;;;;;;5054228;28;20039;-74
2023/04/20 12:39:54;;;;;;;11.82;4.70;;;12.10;99.90;;;;;;5054623;28;20469;-74
2023/04/20 12:42:20;;;;;;;13.35;3.92;;;12.20;99.90;;;;;;5054086;28;20119;-74